createdAt,value
2019-01-31T00:02:10.240Z,99365.84
2019-01-31T00:04:42.096Z,99358.72
2019-01-31T00:07:16.877Z,99362.72
2019-01-31T00:10:00.526Z,99363.09
2019-01-31T00:12:44.364Z,99354.41
2019-01-31T00:15:31.227Z,99361.18
2019-01-31T00:18:06.088Z,99365.42
2019-01-31T00:20:46.954Z,99368.93
2019-01-31T00:23:41.497Z,99370.23
2019-01-31T00:26:19.201Z,99370.94
2019-01-31T00:29:14.973Z,99367.09
2019-01-31T00:31:58.684Z,99363.35
2019-01-31T00:34:42.337Z,99365.75
2019-01-31T00:37:16.716Z,99357.77
2019-01-31T00:39:57.319Z,99364.70
2019-01-31T00:42:31.948Z,99366.86
2019-01-31T00:45:18.706Z,99366.05
2019-01-31T00:47:50.480Z,99366.23
2019-01-31T00:50:28.260Z,99369.22
2019-01-31T00:53:15.141Z,99374.84
2019-01-31T00:56:03.340Z,99369.45
2019-01-31T00:58:59.183Z,99371.08
2019-01-31T01:01:46.352Z,99374.03
2019-01-31T01:04:52.721Z,99371.62
2019-01-31T01:07:27.515Z,99372.34
2019-01-31T01:10:04.743Z,99377.19
2019-01-31T01:12:54.621Z,99382.19
2019-01-31T01:15:45.734Z,99380.56
2019-01-31T01:18:20.236Z,99371.56
2019-01-31T01:20:54.829Z,99374.73
2019-01-31T01:23:35.820Z,99378.83
2019-01-31T01:26:10.856Z,99384.16
2019-01-31T01:28:42.769Z,99390.03
2019-01-31T01:31:26.584Z,99392.42
2019-01-31T01:34:29.892Z,99391.95
2019-01-31T01:37:07.706Z,99393.64
2019-01-31T01:39:45.460Z,99394.02
2019-01-31T01:42:41.097Z,99392.35
2019-01-31T01:45:18.733Z,99383.25
2019-01-31T01:47:56.353Z,99388.25
2019-01-31T01:50:37.319Z,99385.32
2019-01-31T01:53:09.253Z,99381.72
2019-01-31T01:55:52.667Z,99387.74
2019-01-31T01:58:27.434Z,99387.16
2019-01-31T02:01:04.841Z,99385.16
2019-01-31T02:03:45.481Z,99384.36
2019-01-31T02:06:20.002Z,99391.89
2019-01-31T02:09:08.524Z,99384.30
2019-01-31T02:11:58.206Z,99388.14
2019-01-31T02:14:38.801Z,99391.70
2019-01-31T02:17:16.331Z,99391.78
2019-01-31T02:20:00.336Z,99381.14
2019-01-31T02:22:43.916Z,99384.00
2019-01-31T02:25:32.501Z,99378.97
2019-01-31T02:28:07.019Z,99379.84
2019-01-31T02:30:53.302Z,99386.40
2019-01-31T02:33:39.357Z,99386.09
2019-01-31T02:36:22.900Z,99381.30
2019-01-31T02:39:14.562Z,99383.29
2019-01-31T02:42:08.344Z,99382.58
2019-01-31T02:45:01.585Z,99376.18
2019-01-31T02:47:42.151Z,99379.27
2019-01-31T02:50:17.192Z,99381.89
2019-01-31T02:53:23.791Z,99381.50
2019-01-31T02:55:58.348Z,99386.61
2019-01-31T02:58:49.954Z,99387.05
2019-01-31T03:01:30.546Z,99385.98
2019-01-31T03:04:22.678Z,99375.40
2019-01-31T03:06:57.275Z,99374.52
2019-01-31T03:09:34.964Z,99390.15
2019-01-31T03:12:18.556Z,99392.91
2019-01-31T03:14:50.171Z,99388.29
2019-01-31T03:17:39.915Z,99385.05
2019-01-31T03:20:23.820Z,99381.73
2019-01-31T03:23:18.044Z,99389.32
2019-01-31T03:25:59.412Z,99386.88
2019-01-31T03:28:34.524Z,99389.54
2019-01-31T03:31:12.067Z,99391.03
2019-01-31T03:34:17.056Z,99393.14
2019-01-31T03:36:57.551Z,99388.39
2019-01-31T03:39:35.549Z,99389.32
2019-01-31T03:42:19.035Z,99395.00
2019-01-31T03:44:56.990Z,99395.02
2019-01-31T03:47:43.665Z,99393.42
2019-01-31T03:50:15.369Z,99388.03
2019-01-31T03:52:49.826Z,99394.00
2019-01-31T03:55:33.882Z,99396.65
2019-01-31T03:58:22.093Z,99398.34
2019-01-31T04:01:13.785Z,99390.37
2019-01-31T04:03:48.923Z,99392.48
2019-01-31T04:06:19.496Z,99399.05
2019-01-31T04:08:48.020Z,99396.00
2019-01-31T04:11:16.736Z,99398.34
2019-01-31T04:13:45.304Z,99400.26
2019-01-31T04:16:14.005Z,99402.84
2019-01-31T04:18:42.664Z,99399.91
2019-01-31T04:21:11.751Z,99402.09
2019-01-31T04:23:40.354Z,99404.77
2019-01-31T04:26:09.321Z,99394.02
2019-01-31T04:28:38.448Z,99397.88
2019-01-31T04:31:07.037Z,99397.78
2019-01-31T04:33:35.972Z,99394.46
2019-01-31T04:36:05.169Z,99396.22
2019-01-31T04:38:33.814Z,99397.56
2019-01-31T04:41:02.356Z,99403.75
2019-01-31T04:43:30.986Z,99399.84
2019-01-31T04:45:59.969Z,99405.41
2019-01-31T04:48:28.540Z,99401.18
2019-01-31T04:50:57.336Z,99399.44
2019-01-31T04:53:26.038Z,99407.63
2019-01-31T04:55:54.600Z,99407.39
2019-01-31T04:58:23.376Z,99402.72
2019-01-31T05:00:52.375Z,99413.45
2019-01-31T05:03:20.993Z,99412.84
2019-01-31T05:05:49.638Z,99414.53
2019-01-31T05:08:18.249Z,99418.08
2019-01-31T05:10:46.832Z,99413.70
2019-01-31T05:13:15.495Z,99425.48
2019-01-31T05:15:44.027Z,99431.27
2019-01-31T05:18:12.795Z,99425.23
2019-01-31T05:20:42.393Z,99424.13
2019-01-31T05:23:11.233Z,99429.34
2019-01-31T05:25:40.335Z,99431.50
2019-01-31T05:28:09.361Z,99433.22
2019-01-31T05:30:37.958Z,99428.23
2019-01-31T05:33:07.298Z,99432.69
2019-01-31T05:35:36.406Z,99440.19
2019-01-31T05:38:05.392Z,99429.70
2019-01-31T05:40:34.059Z,99437.53
2019-01-31T05:43:02.644Z,99445.50
2019-01-31T05:45:31.234Z,99443.80
2019-01-31T05:47:59.900Z,99445.16
2019-01-31T05:50:28.480Z,99442.52
2019-01-31T05:52:57.157Z,99440.28
2019-01-31T05:55:25.744Z,99441.30
2019-01-31T05:57:54.435Z,99445.39
2019-01-31T06:00:25.346Z,99448.43
2019-01-31T06:02:54.353Z,99456.86
2019-01-31T06:05:23.681Z,99454.34
2019-01-31T06:07:52.221Z,99461.17
2019-01-31T06:10:20.822Z,99450.36
2019-01-31T06:12:49.523Z,99453.63
2019-01-31T06:15:19.440Z,99462.01
2019-01-31T06:17:48.398Z,99466.86
2019-01-31T06:20:25.310Z,99464.05
2019-01-31T06:22:54.118Z,99462.14
2019-01-31T06:25:22.926Z,99457.63
2019-01-31T06:27:51.714Z,99467.57
2019-01-31T06:30:20.882Z,99465.53
2019-01-31T06:32:49.538Z,99472.50
2019-01-31T06:35:18.079Z,99475.17
2019-01-31T06:37:47.016Z,99475.13
2019-01-31T06:40:20.986Z,99474.59
2019-01-31T06:42:50.323Z,99473.44
2019-01-31T06:45:21.395Z,99482.56
2019-01-31T06:47:50.076Z,99485.19
2019-01-31T06:50:19.036Z,99490.58
2019-01-31T06:52:47.674Z,99483.63
2019-01-31T06:55:16.289Z,99481.38
2019-01-31T06:57:44.941Z,99489.34
2019-01-31T07:00:21.619Z,99485.95
2019-01-31T07:02:50.161Z,99486.36
2019-01-31T07:05:18.831Z,99490.36
2019-01-31T07:07:47.822Z,99494.10
2019-01-31T07:10:22.246Z,99433.87
2019-01-31T07:12:50.855Z,99496.01
2019-01-31T07:15:19.616Z,99496.97
2019-01-31T07:17:48.301Z,99495.66
2019-01-31T07:20:18.139Z,99498.16
2019-01-31T07:22:47.057Z,99496.77
2019-01-31T07:25:18.301Z,99497.92
2019-01-31T07:27:47.231Z,99498.64
2019-01-31T07:30:18.322Z,99498.39
2019-01-31T07:32:47.068Z,99494.84
2019-01-31T07:35:16.079Z,99499.84
2019-01-31T07:37:45.152Z,99496.48
2019-01-31T07:40:16.995Z,99498.36
2019-01-31T07:42:45.662Z,99499.70
2019-01-31T07:45:22.653Z,99504.59
2019-01-31T07:47:51.297Z,99500.47
2019-01-31T07:50:20.277Z,99507.97
2019-01-31T07:52:49.984Z,99502.43
2019-01-31T07:55:19.319Z,99513.80
2019-01-31T07:57:47.956Z,99509.41
2019-01-31T08:00:24.597Z,99510.14
2019-01-31T08:02:53.433Z,99512.94
2019-01-31T08:05:23.484Z,99512.21
2019-01-31T08:07:54.171Z,99519.77
2019-01-31T08:10:25.976Z,99513.36
2019-01-31T08:12:54.604Z,99521.98
2019-01-31T08:15:23.204Z,99525.16
2019-01-31T08:17:51.881Z,99525.64
2019-01-31T08:20:21.235Z,99534.98
2019-01-31T08:22:49.936Z,99538.88
2019-01-31T08:25:23.827Z,99539.02
2019-01-31T08:27:53.496Z,99529.63
2019-01-31T08:30:31.077Z,99537.20
2019-01-31T08:33:00.759Z,99534.36
2019-01-31T08:35:29.456Z,99537.23
2019-01-31T08:37:58.353Z,99536.91
2019-01-31T08:40:27.380Z,99534.45
2019-01-31T08:42:56.886Z,99540.95
2019-01-31T08:45:25.770Z,99548.19
2019-01-31T08:47:54.432Z,99548.84
2019-01-31T08:50:27.989Z,99547.12
2019-01-31T08:52:56.610Z,99545.25
2019-01-31T08:55:25.197Z,99544.11
2019-01-31T08:57:53.820Z,99541.60
2019-01-31T09:00:24.639Z,99550.97
2019-01-31T09:02:53.544Z,99551.02
2019-01-31T09:05:22.201Z,99555.96
2019-01-31T09:07:50.983Z,99554.56
2019-01-31T09:10:25.428Z,99560.13
2019-01-31T09:12:54.255Z,99562.92
2019-01-31T09:15:24.585Z,99561.02
2019-01-31T09:17:53.349Z,99567.29
2019-01-31T09:20:40.247Z,99567.83
2019-01-31T09:23:20.633Z,99568.70
2019-01-31T09:26:16.490Z,99566.09
2019-01-31T09:28:53.685Z,99566.92
2019-01-31T09:31:31.526Z,99570.19
2019-01-31T09:34:12.411Z,99567.34
2019-01-31T09:36:50.232Z,99566.78
2019-01-31T09:39:36.793Z,99574.69
2019-01-31T09:42:11.731Z,99575.73
2019-01-31T09:44:58.371Z,99573.11
2019-01-31T09:47:36.159Z,99575.30
2019-01-31T09:50:19.436Z,99574.33
2019-01-31T09:53:05.675Z,99566.37
2019-01-31T09:55:49.736Z,99570.05
2019-01-31T09:58:21.902Z,99572.36
2019-01-31T10:01:20.954Z,99568.98
2019-01-31T10:04:01.475Z,99565.44
2019-01-31T10:06:36.262Z,99569.06
2019-01-31T10:09:17.066Z,99570.95
2019-01-31T10:11:57.726Z,99573.89
2019-01-31T10:14:47.228Z,99574.48
2019-01-31T10:17:46.302Z,99571.24
2019-01-31T10:20:45.369Z,99570.94
2019-01-31T10:23:26.231Z,99567.70
2019-01-31T10:26:13.091Z,99569.14
2019-01-31T10:29:03.061Z,99556.24
2019-01-31T10:31:34.919Z,99564.84
2019-01-31T10:34:23.374Z,99571.47
2019-01-31T10:37:13.413Z,99569.08
2019-01-31T10:40:07.265Z,99563.45
2019-01-31T10:42:57.280Z,99525.62
2019-01-31T10:45:37.958Z,99524.77
2019-01-31T10:48:34.143Z,99510.61
2019-01-31T10:51:40.651Z,99518.66
2019-01-31T10:54:29.868Z,99504.58
2019-01-31T10:57:19.501Z,99509.05
2019-01-31T11:00:23.528Z,99508.29
2019-01-31T11:03:14.409Z,99473.80
2019-01-31T11:06:09.794Z,99501.70
2019-01-31T11:08:41.823Z,99536.39
2019-01-31T11:11:16.405Z,99528.28
2019-01-31T11:13:57.275Z,99481.45
2019-01-31T11:16:29.671Z,99486.08
2019-01-31T11:19:12.132Z,99509.77
2019-01-31T11:22:14.342Z,99494.48
2019-01-31T11:24:53.227Z,99504.42
2019-01-31T11:27:39.918Z,99532.13
2019-01-31T11:30:29.759Z,99530.45
2019-01-31T11:33:13.813Z,99511.02
2019-01-31T11:35:54.358Z,99512.77
2019-01-31T11:38:43.987Z,99516.64
2019-01-31T11:41:32.169Z,99523.42
2019-01-31T11:44:12.788Z,99522.95
2019-01-31T11:46:53.669Z,99526.39
2019-01-31T11:49:37.458Z,99542.24
2019-01-31T11:52:16.456Z,99538.12
2019-01-31T11:54:50.956Z,99533.41
2019-01-31T11:57:55.684Z,99534.12
2019-01-31T12:00:26.345Z,99536.27
2019-01-31T12:02:55.434Z,99541.78
2019-01-31T12:05:24.369Z,99534.89
2019-01-31T12:07:55.394Z,99535.87
2019-01-31T12:10:24.424Z,99539.78
2019-01-31T12:12:53.783Z,99541.51
2019-01-31T12:15:22.411Z,99544.99
2019-01-31T12:17:51.204Z,99535.02
2019-01-31T12:20:19.954Z,99539.67
2019-01-31T12:22:48.835Z,99534.19
2019-01-31T12:25:17.521Z,99546.73
2019-01-31T12:27:46.886Z,99544.90
2019-01-31T12:30:24.746Z,99532.00
2019-01-31T12:32:53.486Z,99531.62
2019-01-31T12:35:22.193Z,99527.54
2019-01-31T12:37:51.540Z,99521.74
2019-01-31T12:40:20.231Z,99527.28
2019-01-31T12:42:49.172Z,99522.92
2019-01-31T12:45:19.861Z,99521.30
2019-01-31T12:47:48.994Z,99524.45
2019-01-31T12:50:23.106Z,99515.94
2019-01-31T12:52:51.901Z,99516.44
2019-01-31T12:55:20.499Z,99520.23
2019-01-31T12:57:49.299Z,99516.88
2019-01-31T13:00:23.457Z,99515.74
2019-01-31T13:02:52.434Z,99521.27
2019-01-31T13:05:21.321Z,99519.16
2019-01-31T13:07:50.445Z,99512.11
2019-01-31T13:10:20.296Z,99513.97
2019-01-31T13:12:49.562Z,99517.84
2019-01-31T13:15:18.242Z,99513.77
2019-01-31T13:17:46.850Z,99514.83
2019-01-31T13:20:20.417Z,99513.02
2019-01-31T13:22:51.801Z,99511.40
2019-01-31T13:25:21.218Z,99515.53
2019-01-31T13:27:49.846Z,99511.23
2019-01-31T13:30:21.514Z,99508.17
2019-01-31T13:32:51.437Z,99516.69
2019-01-31T13:35:20.216Z,99513.94
2019-01-31T13:37:49.260Z,99512.34
2019-01-31T13:40:25.855Z,99514.21
2019-01-31T13:42:57.130Z,99512.28
2019-01-31T13:45:31.450Z,99515.81
2019-01-31T13:48:02.475Z,99520.75
2019-01-31T13:50:31.700Z,99522.63
2019-01-31T13:53:00.885Z,99522.80
2019-01-31T13:55:31.980Z,99522.32
2019-01-31T13:58:01.357Z,99525.03
2019-01-31T14:00:30.182Z,99524.22
2019-01-31T14:02:59.092Z,99522.29
2019-01-31T14:05:29.902Z,99520.45
2019-01-31T14:07:58.829Z,99521.27
2019-01-31T14:10:28.191Z,99524.25
2019-01-31T14:12:57.333Z,99533.20
2019-01-31T14:15:33.982Z,99525.06
2019-01-31T14:18:02.407Z,99526.72
2019-01-31T14:20:31.291Z,99526.99
2019-01-31T14:23:01.442Z,99532.39
2019-01-31T14:25:30.216Z,99533.27
2019-01-31T14:27:59.480Z,99535.48
2019-01-31T14:30:37.220Z,99531.69
2019-01-31T14:33:09.112Z,99533.86
2019-01-31T14:35:38.000Z,99536.55
2019-01-31T14:38:07.385Z,99540.14
2019-01-31T14:40:36.250Z,99545.03
2019-01-31T14:43:05.594Z,99546.11
2019-01-31T14:45:34.497Z,99538.72
2019-01-31T14:48:03.801Z,99542.31
2019-01-31T14:50:34.555Z,99540.48
2019-01-31T14:53:03.525Z,99540.49
2019-01-31T14:55:32.562Z,99546.09
2019-01-31T14:58:03.846Z,99536.95
2019-01-31T15:00:33.473Z,99537.43
2019-01-31T15:03:03.298Z,99539.67
2019-01-31T15:05:36.608Z,99546.78
2019-01-31T15:08:09.311Z,99547.85
2019-01-31T15:10:38.354Z,99539.98
2019-01-31T15:13:07.545Z,99539.50
2019-01-31T15:15:37.025Z,99534.67
2019-01-31T15:18:06.779Z,99534.95
2019-01-31T15:20:41.287Z,99540.90
2019-01-31T15:23:10.802Z,99539.83
2019-01-31T15:25:39.990Z,99544.43
2019-01-31T15:28:08.893Z,99540.91
2019-01-31T15:30:38.599Z,99537.93
2019-01-31T15:33:10.368Z,99533.89
2019-01-31T15:35:39.046Z,99539.84
2019-01-31T15:38:08.027Z,99528.73
2019-01-31T15:40:40.414Z,99532.77
2019-01-31T15:43:09.839Z,99537.11
2019-01-31T15:45:39.019Z,99531.44
2019-01-31T15:48:10.960Z,99537.66
2019-01-31T15:50:40.964Z,99531.97
2019-01-31T15:53:10.170Z,99538.17
2019-01-31T15:55:39.708Z,99535.48
2019-01-31T15:58:09.234Z,99534.66
2019-01-31T16:00:44.820Z,99543.86
2019-01-31T16:03:15.892Z,99542.77
2019-01-31T16:05:45.537Z,99541.40
2019-01-31T16:08:14.591Z,99541.64
2019-01-31T16:10:44.792Z,99540.55
2019-01-31T16:13:13.834Z,99547.30
2019-01-31T16:15:44.751Z,99547.02
2019-01-31T16:18:15.075Z,99541.38
2019-01-31T16:20:44.471Z,99541.61
2019-01-31T16:23:14.004Z,99545.66
2019-01-31T16:25:47.485Z,99539.69
2019-01-31T16:28:16.282Z,99539.64
2019-01-31T16:30:45.057Z,99534.50
2019-01-31T16:33:13.923Z,99534.75
2019-01-31T16:35:42.742Z,99532.56
2019-01-31T16:38:12.986Z,99533.38
2019-01-31T16:40:42.575Z,99533.89
2019-01-31T16:43:11.512Z,99539.00
2019-01-31T16:45:40.328Z,99530.64
2019-01-31T16:48:09.194Z,99530.87
2019-01-31T16:50:38.062Z,99534.08
2019-01-31T16:53:07.031Z,99535.18
2019-01-31T16:55:35.771Z,99533.55
2019-01-31T16:58:06.257Z,99537.55
2019-01-31T17:00:35.513Z,99537.75
2019-01-31T17:03:05.620Z,99534.77
2019-01-31T17:05:35.108Z,99537.47
2019-01-31T17:08:04.527Z,99536.92
2019-01-31T17:10:34.835Z,99535.33
2019-01-31T17:13:04.382Z,99540.95
2019-01-31T17:15:33.554Z,99535.27
2019-01-31T17:18:03.767Z,99536.90
2019-01-31T17:20:41.182Z,99531.72
2019-01-31T17:23:10.289Z,99534.66
2019-01-31T17:25:39.519Z,99537.40
2019-01-31T17:28:09.257Z,99541.14
2019-01-31T17:30:38.466Z,99545.94
2019-01-31T17:33:07.257Z,99544.30
2019-01-31T17:35:36.488Z,99537.23
2019-01-31T17:38:05.462Z,99533.22
2019-01-31T17:40:37.021Z,99532.89
2019-01-31T17:43:07.343Z,99536.41
2019-01-31T17:45:35.921Z,99535.27
2019-01-31T17:48:05.594Z,99537.97
2019-01-31T17:50:34.606Z,99540.14
2019-01-31T17:53:03.499Z,99540.92
2019-01-31T17:55:32.476Z,99534.98
2019-01-31T17:58:01.191Z,99539.08
2019-01-31T18:00:36.968Z,99536.83
2019-01-31T18:03:07.285Z,99530.12
2019-01-31T18:05:36.080Z,99536.59
2019-01-31T18:08:09.039Z,99535.44
2019-01-31T18:10:36.230Z,99536.99
2019-01-31T18:13:05.705Z,99529.10
2019-01-31T18:15:42.251Z,99544.14
2019-01-31T18:18:05.956Z,99541.44
2019-01-31T18:20:34.935Z,99542.83
2019-01-31T18:23:03.763Z,99535.51
2019-01-31T18:25:32.453Z,99540.09
2019-01-31T18:28:01.343Z,99538.50
2019-01-31T18:30:35.672Z,99534.06
2019-01-31T18:33:05.756Z,99529.17
2019-01-31T18:35:34.907Z,99532.97
2019-01-31T18:38:06.063Z,99537.88
2019-01-31T18:40:36.017Z,99532.62
2019-01-31T18:43:04.940Z,99531.33
2019-01-31T18:45:36.085Z,99525.16
2019-01-31T18:48:08.033Z,99529.30
2019-01-31T18:50:42.380Z,99527.81
2019-01-31T18:53:12.912Z,99524.48
2019-01-31T18:55:42.619Z,99526.89
2019-01-31T18:58:15.301Z,99529.83
2019-01-31T19:00:47.926Z,99523.39
2019-01-31T19:03:21.196Z,99530.28
2019-01-31T19:05:51.442Z,99525.98
2019-01-31T19:08:21.547Z,99522.95
2019-01-31T19:10:51.049Z,99519.19
2019-01-31T19:13:21.281Z,99521.61
2019-01-31T19:15:50.080Z,99514.56
2019-01-31T19:18:19.170Z,99517.41
2019-01-31T19:20:48.518Z,99513.36
2019-01-31T19:23:18.112Z,99511.78
2019-01-31T19:25:47.394Z,99515.58
2019-01-31T19:28:18.117Z,99511.59
2019-01-31T19:30:48.508Z,99512.69
2019-01-31T19:33:20.666Z,99514.09
2019-01-31T19:35:50.546Z,99510.88
2019-01-31T19:38:20.856Z,99510.33
2019-01-31T19:40:52.549Z,99512.51
2019-01-31T19:43:22.625Z,99507.39
2019-01-31T19:45:52.019Z,99508.59
2019-01-31T19:48:23.465Z,99508.13
2019-01-31T19:50:52.777Z,99505.42
2019-01-31T19:53:22.733Z,99501.19
2019-01-31T19:55:52.588Z,99500.98
2019-01-31T19:58:22.153Z,99499.94
2019-01-31T20:00:52.414Z,99502.39
2019-01-31T20:03:22.698Z,99496.27
2019-01-31T20:05:53.617Z,99491.66
2019-01-31T20:08:24.976Z,99494.30
2019-01-31T20:10:56.618Z,99489.25
2019-01-31T20:13:28.003Z,99492.95
2019-01-31T20:15:58.941Z,99496.47
2019-01-31T20:18:28.975Z,99497.81
2019-01-31T20:21:00.513Z,99497.19
2019-01-31T20:23:33.876Z,99490.27
2019-01-31T20:26:03.349Z,99491.26
2019-01-31T20:28:34.164Z,99490.98
2019-01-31T20:31:03.909Z,99489.05
2019-01-31T20:33:34.021Z,99497.94
2019-01-31T20:36:04.623Z,99488.23
2019-01-31T20:38:34.248Z,99490.87
2019-01-31T20:41:03.501Z,99497.30
2019-01-31T20:43:32.877Z,99495.15
2019-01-31T20:46:02.436Z,99494.67
2019-01-31T20:48:32.307Z,99489.76
2019-01-31T20:51:02.576Z,99490.06
2019-01-31T20:53:31.853Z,99493.31
2019-01-31T20:56:02.967Z,99491.92
2019-01-31T20:58:32.601Z,99489.46
2019-01-31T21:01:06.093Z,99483.33
2019-01-31T21:03:41.990Z,99492.16
2019-01-31T21:06:13.020Z,99488.13
2019-01-31T21:08:43.286Z,99485.88
2019-01-31T21:11:12.959Z,99483.61
2019-01-31T21:13:42.527Z,99490.28
2019-01-31T21:16:13.362Z,99488.34
2019-01-31T21:18:43.208Z,99488.13
2019-01-31T21:21:13.366Z,99488.30
2019-01-31T21:23:42.459Z,99481.55
2019-01-31T21:26:13.779Z,99479.70
2019-01-31T21:28:44.212Z,99485.89
2019-01-31T21:31:13.951Z,99487.94
2019-01-31T21:33:44.507Z,99486.88
2019-01-31T21:36:16.483Z,99487.20
2019-01-31T21:38:46.983Z,99484.61
2019-01-31T21:41:16.992Z,99481.39
2019-01-31T21:43:46.036Z,99481.67
2019-01-31T21:46:15.412Z,99482.56
2019-01-31T21:48:44.909Z,99490.05
2019-01-31T21:51:15.645Z,99484.55
2019-01-31T21:53:46.431Z,99482.56
2019-01-31T21:56:17.032Z,99477.92
2019-01-31T21:58:47.260Z,99485.27
2019-01-31T22:01:15.951Z,99491.09
2019-01-31T22:03:44.922Z,99482.89
2019-01-31T22:06:22.269Z,99483.43
2019-01-31T22:08:44.421Z,99485.88
2019-01-31T22:11:13.261Z,99484.88
2019-01-31T22:13:42.800Z,99476.45
2019-01-31T22:16:12.481Z,99468.50
2019-01-31T22:18:41.378Z,99465.92
2019-01-31T22:21:10.252Z,99456.20
2019-01-31T22:23:39.147Z,99467.37
2019-01-31T22:26:07.852Z,99465.72
2019-01-31T22:28:36.894Z,99462.81
2019-01-31T22:31:05.530Z,99456.25
2019-01-31T22:33:34.384Z,99456.67
2019-01-31T22:36:03.088Z,99453.83
2019-01-31T22:38:31.836Z,99459.08
2019-01-31T22:41:00.493Z,99457.46
2019-01-31T22:43:29.192Z,99456.41
2019-01-31T22:45:57.930Z,99460.73
2019-01-31T22:48:26.671Z,99460.20
2019-01-31T22:50:55.326Z,99457.59
2019-01-31T22:53:23.982Z,99450.19
2019-01-31T22:55:53.167Z,99453.88
2019-01-31T22:58:22.342Z,99449.32
2019-01-31T23:01:01.465Z,99455.90
2019-01-31T23:03:30.239Z,99443.46
2019-01-31T23:05:58.833Z,99444.69
2019-01-31T23:08:27.540Z,99441.98
2019-01-31T23:10:56.145Z,99434.16
2019-01-31T23:13:24.898Z,99440.36
2019-01-31T23:15:53.618Z,99433.26
2019-01-31T23:18:22.286Z,99426.83
2019-01-31T23:20:51.008Z,99424.69
2019-01-31T23:23:20.114Z,99427.11
2019-01-31T23:25:48.764Z,99431.84
2019-01-31T23:28:17.459Z,99426.70
2019-01-31T23:30:46.060Z,99426.77
2019-01-31T23:33:14.769Z,99427.66
2019-01-31T23:35:43.776Z,99422.52
2019-01-31T23:38:12.371Z,99420.41
2019-01-31T23:40:40.990Z,99423.80
2019-01-31T23:43:09.758Z,99409.27
2019-01-31T23:45:38.482Z,99415.25
2019-01-31T23:48:07.103Z,99411.50
2019-01-31T23:50:35.858Z,99408.98
2019-01-31T23:53:04.563Z,99414.89
2019-01-31T23:55:33.146Z,99406.30
2019-01-31T23:58:02.587Z,99406.52
